<?xml version="1.0" encoding="UTF-8" standalone="no" ?>
<gpx xmlns="http://www.topografix.com/GPX/1/1" creator="MapSource 6.11.6" version="1.1" xmlns:xsi="http://www.w3.org/2001/XMLSchema-instance" xsi:schemaLocation="http://www.topografix.com/GPX/1/1 http://www.topografix.com/GPX/1/1/gpx.xsd">

  <metadata>
    <link href="http://www.garmin.com">
      <text>Garmin International</text>
    </link>
    <time>2010-03-14T12:15:09Z</time>
    <bounds maxlat="50.666293" maxlon="6.432003" minlat="50.654412" minlon="6.405392"/>
  </metadata>

  <trk>
    <name>Schmidt 14.03.2010</name>
    <extensions>
      <gpxx:TrackExtension xmlns:gpxx="http://www.garmin.com/xmlschemas/GpxExtensions/v3" xmlns:xsi="http://www.w3.org/2001/XMLSchema-instance" xsi:schemaLocation="http://www.garmin.com/xmlschemas/GpxExtensions/v3 http://www.garmin.com/xmlschemas/GpxExtensions/v3/GpxExtensionsv3.xsd">
        <gpxx:DisplayColor>White</gpxx:DisplayColor>
      </gpxx:TrackExtension>
    </extensions>
    <trkseg>
      <trkpt lat="50.663307" lon="6.405443">
        <ele>437.060000</ele>
        <time>2010-03-14T09:31:44Z</time>
      </trkpt>
      <trkpt lat="50.663172" lon="6.405531">
        <ele>438.020000</ele>
        <time>2010-03-14T09:31:57Z</time>
      </trkpt>
      <trkpt lat="50.663043" lon="6.405744">
        <ele>438.500000</ele>
        <time>2010-03-14T09:32:11Z</time>
      </trkpt>
      <trkpt lat="50.662847" lon="6.405998">
        <ele>438.980000</ele>
        <time>2010-03-14T09:32:27Z</time>
      </trkpt>
      <trkpt lat="50.662740" lon="6.406135">
        <ele>438.980000</ele>
        <time>2010-03-14T09:32:38Z</time>
      </trkpt>
      <trkpt lat="50.662687" lon="6.406185">
        <ele>439.460000</ele>
        <time>2010-03-14T09:32:43Z</time>
      </trkpt>
      <trkpt lat="50.662578" lon="6.406361">
        <ele>439.460000</ele>
        <time>2010-03-14T09:32:56Z</time>
      </trkpt>
      <trkpt lat="50.662489" lon="6.406540">
        <ele>439.940000</ele>
        <time>2010-03-14T09:33:08Z</time>
      </trkpt>
      <trkpt lat="50.662304" lon="6.406828">
        <ele>440.420000</ele>
        <time>2010-03-14T09:33:29Z</time>
      </trkpt>
      <trkpt lat="50.662092" lon="6.407318">
        <ele>442.820000</ele>
        <time>2010-03-14T09:33:53Z</time>
      </trkpt>
      <trkpt lat="50.661955" lon="6.407443">
        <ele>443.790000</ele>
        <time>2010-03-14T09:34:07Z</time>
      </trkpt>
      <trkpt lat="50.661919" lon="6.407550">
        <ele>444.270000</ele>
        <time>2010-03-14T09:34:13Z</time>
      </trkpt>
      <trkpt lat="50.661882" lon="6.407852">
        <ele>444.270000</ele>
        <time>2010-03-14T09:34:29Z</time>
      </trkpt>
      <trkpt lat="50.661768" lon="6.407989">
        <ele>444.750000</ele>
        <time>2010-03-14T09:34:42Z</time>
      </trkpt>
      <trkpt lat="50.661597" lon="6.408190">
        <ele>444.270000</ele>
        <time>2010-03-14T09:34:54Z</time>
      </trkpt>
      <trkpt lat="50.661488" lon="6.408350">
        <ele>443.790000</ele>
        <time>2010-03-14T09:35:07Z</time>
      </trkpt>
      <trkpt lat="50.661413" lon="6.408491">
        <ele>444.270000</ele>
        <time>2010-03-14T09:35:16Z</time>
      </trkpt>
      <trkpt lat="50.661383" lon="6.408530">
        <ele>443.790000</ele>
        <time>2010-03-14T09:35:19Z</time>
      </trkpt>
      <trkpt lat="50.661276" lon="6.408738">
        <ele>443.310000</ele>
        <time>2010-03-14T09:35:33Z</time>
      </trkpt>
      <trkpt lat="50.661235" lon="6.408762">
        <ele>443.790000</ele>
        <time>2010-03-14T09:35:37Z</time>
      </trkpt>
      <trkpt lat="50.661201" lon="6.408697">
        <ele>443.790000</ele>
        <time>2010-03-14T09:35:42Z</time>
      </trkpt>
      <trkpt lat="50.661126" lon="6.408541">
        <ele>444.750000</ele>
        <time>2010-03-14T09:35:54Z</time>
      </trkpt>
      <trkpt lat="50.660941" lon="6.408241">
        <ele>445.710000</ele>
        <time>2010-03-14T09:36:11Z</time>
      </trkpt>
      <trkpt lat="50.660821" lon="6.408210">
        <ele>446.190000</ele>
        <time>2010-03-14T09:36:20Z</time>
      </trkpt>
      <trkpt lat="50.660742" lon="6.408282">
        <ele>446.190000</ele>
        <time>2010-03-14T09:36:28Z</time>
      </trkpt>
      <trkpt lat="50.660487" lon="6.408457">
        <ele>446.190000</ele>
        <time>2010-03-14T09:36:50Z</time>
      </trkpt>
      <trkpt lat="50.660312" lon="6.408594">
        <ele>446.190000</ele>
        <time>2010-03-14T09:37:03Z</time>
      </trkpt>
      <trkpt lat="50.660180" lon="6.408741">
        <ele>446.190000</ele>
        <time>2010-03-14T09:37:17Z</time>
      </trkpt>
      <trkpt lat="50.660066" lon="6.408962">
        <ele>445.710000</ele>
        <time>2010-03-14T09:37:32Z</time>
      </trkpt>
      <trkpt lat="50.659897" lon="6.408961">
        <ele>446.190000</ele>
        <time>2010-03-14T09:37:44Z</time>
      </trkpt>
      <trkpt lat="50.659780" lon="6.408964">
        <ele>446.190000</ele>
        <time>2010-03-14T09:37:53Z</time>
      </trkpt>
      <trkpt lat="50.659580" lon="6.409124">
        <ele>446.190000</ele>
        <time>2010-03-14T09:38:09Z</time>
      </trkpt>
      <trkpt lat="50.659425" lon="6.409124">
        <ele>446.670000</ele>
        <time>2010-03-14T09:38:23Z</time>
      </trkpt>
      <trkpt lat="50.659375" lon="6.409102">
        <ele>447.150000</ele>
        <time>2010-03-14T09:38:29Z</time>
      </trkpt>
      <trkpt lat="50.659254" lon="6.409046">
        <ele>446.670000</ele>
        <time>2010-03-14T09:38:37Z</time>
      </trkpt>
      <trkpt lat="50.659177" lon="6.408994">
        <ele>446.670000</ele>
        <time>2010-03-14T09:38:45Z</time>
      </trkpt>
      <trkpt lat="50.659152" lon="6.408851">
        <ele>447.150000</ele>
        <time>2010-03-14T09:39:02Z</time>
      </trkpt>
      <trkpt lat="50.659111" lon="6.408918">
        <ele>447.150000</ele>
        <time>2010-03-14T09:39:49Z</time>
      </trkpt>
      <trkpt lat="50.659040" lon="6.408956">
        <ele>446.670000</ele>
        <time>2010-03-14T09:39:53Z</time>
      </trkpt>
      <trkpt lat="50.659004" lon="6.408941">
        <ele>446.670000</ele>
        <time>2010-03-14T09:39:56Z</time>
      </trkpt>
      <trkpt lat="50.658960" lon="6.409067">
        <ele>446.670000</ele>
        <time>2010-03-14T09:40:06Z</time>
      </trkpt>
      <trkpt lat="50.658913" lon="6.409294">
        <ele>445.710000</ele>
        <time>2010-03-14T09:40:19Z</time>
      </trkpt>
      <trkpt lat="50.658840" lon="6.409524">
        <ele>444.750000</ele>
        <time>2010-03-14T09:40:29Z</time>
      </trkpt>
      <trkpt lat="50.658777" lon="6.409566">
        <ele>445.230000</ele>
        <time>2010-03-14T09:40:33Z</time>
      </trkpt>
      <trkpt lat="50.658746" lon="6.409512">
        <ele>445.710000</ele>
        <time>2010-03-14T09:40:37Z</time>
      </trkpt>
      <trkpt lat="50.658631" lon="6.409411">
        <ele>446.670000</ele>
        <time>2010-03-14T09:40:48Z</time>
      </trkpt>
      <trkpt lat="50.658439" lon="6.409373">
        <ele>447.150000</ele>
        <time>2010-03-14T09:41:04Z</time>
      </trkpt>
      <trkpt lat="50.658365" lon="6.409225">
        <ele>448.110000</ele>
        <time>2010-03-14T09:41:12Z</time>
      </trkpt>
      <trkpt lat="50.658174" lon="6.409051">
        <ele>448.110000</ele>
        <time>2010-03-14T09:41:28Z</time>
      </trkpt>
      <trkpt lat="50.658136" lon="6.409135">
        <ele>448.110000</ele>
        <time>2010-03-14T09:41:34Z</time>
      </trkpt>
      <trkpt lat="50.658006" lon="6.409485">
        <ele>447.150000</ele>
        <time>2010-03-14T09:41:54Z</time>
      </trkpt>
      <trkpt lat="50.657913" lon="6.409695">
        <ele>446.190000</ele>
        <time>2010-03-14T09:42:08Z</time>
      </trkpt>
      <trkpt lat="50.657889" lon="6.409704">
        <ele>446.670000</ele>
        <time>2010-03-14T09:42:10Z</time>
      </trkpt>
      <trkpt lat="50.657825" lon="6.409656">
        <ele>446.670000</ele>
        <time>2010-03-14T09:42:15Z</time>
      </trkpt>
      <trkpt lat="50.657671" lon="6.409594">
        <ele>446.670000</ele>
        <time>2010-03-14T09:42:26Z</time>
      </trkpt>
      <trkpt lat="50.657587" lon="6.409579">
        <ele>447.150000</ele>
        <time>2010-03-14T09:42:32Z</time>
      </trkpt>
      <trkpt lat="50.657395" lon="6.409492">
        <ele>447.630000</ele>
        <time>2010-03-14T09:42:47Z</time>
      </trkpt>
      <trkpt lat="50.657252" lon="6.409402">
        <ele>448.590000</ele>
        <time>2010-03-14T09:43:01Z</time>
      </trkpt>
      <trkpt lat="50.657199" lon="6.409390">
        <ele>449.070000</ele>
        <time>2010-03-14T09:43:06Z</time>
      </trkpt>
      <trkpt lat="50.657075" lon="6.409302">
        <ele>448.590000</ele>
        <time>2010-03-14T09:43:14Z</time>
      </trkpt>
      <trkpt lat="50.656958" lon="6.409370">
        <ele>448.110000</ele>
        <time>2010-03-14T09:43:22Z</time>
      </trkpt>
      <trkpt lat="50.656869" lon="6.409334">
        <ele>449.070000</ele>
        <time>2010-03-14T09:43:30Z</time>
      </trkpt>
      <trkpt lat="50.656804" lon="6.408965">
        <ele>449.070000</ele>
        <time>2010-03-14T09:43:46Z</time>
      </trkpt>
      <trkpt lat="50.656747" lon="6.408599">
        <ele>449.550000</ele>
        <time>2010-03-14T09:44:04Z</time>
      </trkpt>
      <trkpt lat="50.656681" lon="6.408404">
        <ele>449.550000</ele>
        <time>2010-03-14T09:44:16Z</time>
      </trkpt>
      <trkpt lat="50.656619" lon="6.408069">
        <ele>450.030000</ele>
        <time>2010-03-14T09:44:30Z</time>
      </trkpt>
      <trkpt lat="50.656638" lon="6.407813">
        <ele>450.520000</ele>
        <time>2010-03-14T09:44:45Z</time>
      </trkpt>
      <trkpt lat="50.656584" lon="6.407437">
        <ele>449.550000</ele>
        <time>2010-03-14T09:44:59Z</time>
      </trkpt>
      <trkpt lat="50.656578" lon="6.407395">
        <ele>449.550000</ele>
        <time>2010-03-14T09:45:02Z</time>
      </trkpt>
      <trkpt lat="50.656584" lon="6.407353">
        <ele>450.030000</ele>
        <time>2010-03-14T09:45:05Z</time>
      </trkpt>
      <trkpt lat="50.656463" lon="6.407106">
        <ele>449.550000</ele>
        <time>2010-03-14T09:45:19Z</time>
      </trkpt>
      <trkpt lat="50.656280" lon="6.407044">
        <ele>448.590000</ele>
        <time>2010-03-14T09:45:34Z</time>
      </trkpt>
      <trkpt lat="50.656032" lon="6.406928">
        <ele>448.110000</ele>
        <time>2010-03-14T09:45:51Z</time>
      </trkpt>
      <trkpt lat="50.655880" lon="6.407112">
        <ele>447.630000</ele>
        <time>2010-03-14T09:46:06Z</time>
      </trkpt>
      <trkpt lat="50.655878" lon="6.407431">
        <ele>448.590000</ele>
        <time>2010-03-14T09:46:20Z</time>
      </trkpt>
      <trkpt lat="50.655868" lon="6.407704">
        <ele>448.110000</ele>
        <time>2010-03-14T09:46:34Z</time>
      </trkpt>
      <trkpt lat="50.655851" lon="6.408023">
        <ele>447.630000</ele>
        <time>2010-03-14T09:46:49Z</time>
      </trkpt>
      <trkpt lat="50.655784" lon="6.408400">
        <ele>447.630000</ele>
        <time>2010-03-14T09:47:04Z</time>
      </trkpt>
      <trkpt lat="50.655759" lon="6.408729">
        <ele>446.670000</ele>
        <time>2010-03-14T09:47:18Z</time>
      </trkpt>
      <trkpt lat="50.655760" lon="6.409044">
        <ele>444.270000</ele>
        <time>2010-03-14T09:47:34Z</time>
      </trkpt>
      <trkpt lat="50.655755" lon="6.409384">
        <ele>442.340000</ele>
        <time>2010-03-14T09:47:49Z</time>
      </trkpt>
      <trkpt lat="50.655764" lon="6.409665">
        <ele>438.980000</ele>
        <time>2010-03-14T09:48:04Z</time>
      </trkpt>
      <trkpt lat="50.655798" lon="6.409956">
        <ele>437.060000</ele>
        <time>2010-03-14T09:48:17Z</time>
      </trkpt>
      <trkpt lat="50.655829" lon="6.410295">
        <ele>435.130000</ele>
        <time>2010-03-14T09:48:35Z</time>
      </trkpt>
      <trkpt lat="50.655858" lon="6.410703">
        <ele>433.690000</ele>
        <time>2010-03-14T09:48:53Z</time>
      </trkpt>
      <trkpt lat="50.655850" lon="6.410873">
        <ele>431.770000</ele>
        <time>2010-03-14T09:49:02Z</time>
      </trkpt>
      <trkpt lat="50.655878" lon="6.411176">
        <ele>430.330000</ele>
        <time>2010-03-14T09:49:16Z</time>
      </trkpt>
      <trkpt lat="50.655878" lon="6.411503">
        <ele>428.890000</ele>
        <time>2010-03-14T09:49:31Z</time>
      </trkpt>
      <trkpt lat="50.655851" lon="6.411673">
        <ele>428.400000</ele>
        <time>2010-03-14T09:49:38Z</time>
      </trkpt>
      <trkpt lat="50.655807" lon="6.412005">
        <ele>427.440000</ele>
        <time>2010-03-14T09:49:53Z</time>
      </trkpt>
      <trkpt lat="50.655790" lon="6.412332">
        <ele>427.920000</ele>
        <time>2010-03-14T09:50:07Z</time>
      </trkpt>
      <trkpt lat="50.655751" lon="6.412587">
        <ele>427.920000</ele>
        <time>2010-03-14T09:50:20Z</time>
      </trkpt>
      <trkpt lat="50.655696" lon="6.412855">
        <ele>428.400000</ele>
        <time>2010-03-14T09:50:33Z</time>
      </trkpt>
      <trkpt lat="50.655688" lon="6.412872">
        <ele>428.400000</ele>
        <time>2010-03-14T09:50:34Z</time>
      </trkpt>
      <trkpt lat="50.655619" lon="6.413287">
        <ele>428.890000</ele>
        <time>2010-03-14T09:50:52Z</time>
      </trkpt>
      <trkpt lat="50.655564" lon="6.413598">
        <ele>428.400000</ele>
        <time>2010-03-14T09:51:07Z</time>
      </trkpt>
      <trkpt lat="50.655511" lon="6.413886">
        <ele>427.440000</ele>
        <time>2010-03-14T09:51:23Z</time>
      </trkpt>
      <trkpt lat="50.655417" lon="6.414180">
        <ele>426.480000</ele>
        <time>2010-03-14T09:51:37Z</time>
      </trkpt>
      <trkpt lat="50.655292" lon="6.414511">
        <ele>426.480000</ele>
        <time>2010-03-14T09:51:54Z</time>
      </trkpt>
      <trkpt lat="50.655226" lon="6.414804">
        <ele>426.480000</ele>
        <time>2010-03-14T09:52:09Z</time>
      </trkpt>
      <trkpt lat="50.655167" lon="6.414975">
        <ele>425.520000</ele>
        <time>2010-03-14T09:52:16Z</time>
      </trkpt>
      <trkpt lat="50.655072" lon="6.415233">
        <ele>425.040000</ele>
        <time>2010-03-14T09:52:32Z</time>
      </trkpt>
      <trkpt lat="50.655017" lon="6.415456">
        <ele>424.560000</ele>
        <time>2010-03-14T09:52:45Z</time>
      </trkpt>
      <trkpt lat="50.654982" lon="6.415645">
        <ele>424.560000</ele>
        <time>2010-03-14T09:52:58Z</time>
      </trkpt>
      <trkpt lat="50.654873" lon="6.415907">
        <ele>424.560000</ele>
        <time>2010-03-14T09:53:13Z</time>
      </trkpt>
      <trkpt lat="50.654869" lon="6.415934">
        <ele>424.080000</ele>
        <time>2010-03-14T09:53:14Z</time>
      </trkpt>
      <trkpt lat="50.654848" lon="6.416016">
        <ele>424.080000</ele>
        <time>2010-03-14T09:53:18Z</time>
      </trkpt>
      <trkpt lat="50.654814" lon="6.416317">
        <ele>424.080000</ele>
        <time>2010-03-14T09:53:32Z</time>
      </trkpt>
      <trkpt lat="50.654808" lon="6.416651">
        <ele>422.640000</ele>
        <time>2010-03-14T09:53:48Z</time>
      </trkpt>
      <trkpt lat="50.654812" lon="6.416967">
        <ele>422.640000</ele>
        <time>2010-03-14T09:54:03Z</time>
      </trkpt>
      <trkpt lat="50.654789" lon="6.417274">
        <ele>421.190000</ele>
        <time>2010-03-14T09:54:17Z</time>
      </trkpt>
      <trkpt lat="50.654770" lon="6.417493">
        <ele>420.710000</ele>
        <time>2010-03-14T09:54:31Z</time>
      </trkpt>
      <trkpt lat="50.654774" lon="6.417834">
        <ele>420.230000</ele>
        <time>2010-03-14T09:54:46Z</time>
      </trkpt>
      <trkpt lat="50.654760" lon="6.417904">
        <ele>420.230000</ele>
        <time>2010-03-14T09:54:50Z</time>
      </trkpt>
      <trkpt lat="50.654750" lon="6.418098">
        <ele>419.750000</ele>
        <time>2010-03-14T09:55:00Z</time>
      </trkpt>
      <trkpt lat="50.654727" lon="6.418459">
        <ele>418.790000</ele>
        <time>2010-03-14T09:55:16Z</time>
      </trkpt>
      <trkpt lat="50.654780" lon="6.418876">
        <ele>418.310000</ele>
        <time>2010-03-14T09:55:32Z</time>
      </trkpt>
      <trkpt lat="50.654813" lon="6.419017">
        <ele>418.310000</ele>
        <time>2010-03-14T09:55:38Z</time>
      </trkpt>
      <trkpt lat="50.654709" lon="6.419286">
        <ele>417.830000</ele>
        <time>2010-03-14T09:55:53Z</time>
      </trkpt>
      <trkpt lat="50.654686" lon="6.419535">
        <ele>417.830000</ele>
        <time>2010-03-14T09:56:04Z</time>
      </trkpt>
      <trkpt lat="50.654667" lon="6.419852">
        <ele>417.350000</ele>
        <time>2010-03-14T09:56:20Z</time>
      </trkpt>
      <trkpt lat="50.654665" lon="6.419905">
        <ele>417.350000</ele>
        <time>2010-03-14T09:56:22Z</time>
      </trkpt>
      <trkpt lat="50.654649" lon="6.420094">
        <ele>417.350000</ele>
        <time>2010-03-14T09:56:32Z</time>
      </trkpt>
      <trkpt lat="50.654678" lon="6.420209">
        <ele>416.870000</ele>
        <time>2010-03-14T09:56:37Z</time>
      </trkpt>
      <trkpt lat="50.654681" lon="6.420392">
        <ele>416.870000</ele>
        <time>2010-03-14T09:56:47Z</time>
      </trkpt>
      <trkpt lat="50.654627" lon="6.420694">
        <ele>416.390000</ele>
        <time>2010-03-14T09:57:02Z</time>
      </trkpt>
      <trkpt lat="50.654574" lon="6.421039">
        <ele>416.390000</ele>
        <time>2010-03-14T09:57:19Z</time>
      </trkpt>
      <trkpt lat="50.654548" lon="6.421398">
        <ele>415.910000</ele>
        <time>2010-03-14T09:57:36Z</time>
      </trkpt>
      <trkpt lat="50.654545" lon="6.421646">
        <ele>415.430000</ele>
        <time>2010-03-14T09:57:49Z</time>
      </trkpt>
      <trkpt lat="50.654496" lon="6.421960">
        <ele>415.910000</ele>
        <time>2010-03-14T09:58:04Z</time>
      </trkpt>
      <trkpt lat="50.654474" lon="6.422060">
        <ele>415.910000</ele>
        <time>2010-03-14T09:58:11Z</time>
      </trkpt>
      <trkpt lat="50.654472" lon="6.422411">
        <ele>415.430000</ele>
        <time>2010-03-14T09:58:26Z</time>
      </trkpt>
      <trkpt lat="50.654457" lon="6.422582">
        <ele>415.430000</ele>
        <time>2010-03-14T09:58:34Z</time>
      </trkpt>
      <trkpt lat="50.654422" lon="6.422954">
        <ele>415.430000</ele>
        <time>2010-03-14T09:58:52Z</time>
      </trkpt>
      <trkpt lat="50.654412" lon="6.423208">
        <ele>415.910000</ele>
        <time>2010-03-14T09:59:05Z</time>
      </trkpt>
      <trkpt lat="50.654439" lon="6.423424">
        <ele>415.910000</ele>
        <time>2010-03-14T09:59:19Z</time>
      </trkpt>
      <trkpt lat="50.654474" lon="6.423751">
        <ele>415.430000</ele>
        <time>2010-03-14T09:59:34Z</time>
      </trkpt>
      <trkpt lat="50.654519" lon="6.424001">
        <ele>415.430000</ele>
        <time>2010-03-14T09:59:48Z</time>
      </trkpt>
      <trkpt lat="50.654577" lon="6.424123">
        <ele>415.430000</ele>
        <time>2010-03-14T10:00:03Z</time>
      </trkpt>
      <trkpt lat="50.654571" lon="6.424258">
        <ele>415.430000</ele>
        <time>2010-03-14T10:00:22Z</time>
      </trkpt>
      <trkpt lat="50.654592" lon="6.424269">
        <ele>414.950000</ele>
        <time>2010-03-14T10:00:39Z</time>
      </trkpt>
      <trkpt lat="50.654650" lon="6.424410">
        <ele>414.950000</ele>
        <time>2010-03-14T10:00:58Z</time>
      </trkpt>
      <trkpt lat="50.654712" lon="6.424567">
        <ele>414.950000</ele>
        <time>2010-03-14T10:01:06Z</time>
      </trkpt>
      <trkpt lat="50.654778" lon="6.424830">
        <ele>414.950000</ele>
        <time>2010-03-14T10:01:21Z</time>
      </trkpt>
      <trkpt lat="50.654878" lon="6.425064">
        <ele>414.470000</ele>
        <time>2010-03-14T10:01:33Z</time>
      </trkpt>
      <trkpt lat="50.654934" lon="6.425279">
        <ele>413.980000</ele>
        <time>2010-03-14T10:01:48Z</time>
      </trkpt>
      <trkpt lat="50.655137" lon="6.425258">
        <ele>412.540000</ele>
        <time>2010-03-14T10:02:03Z</time>
      </trkpt>
      <trkpt lat="50.655332" lon="6.425301">
        <ele>412.060000</ele>
        <time>2010-03-14T10:02:19Z</time>
      </trkpt>
      <trkpt lat="50.655489" lon="6.425324">
        <ele>410.620000</ele>
        <time>2010-03-14T10:02:33Z</time>
      </trkpt>
      <trkpt lat="50.655514" lon="6.425384">
        <ele>410.620000</ele>
        <time>2010-03-14T10:02:38Z</time>
      </trkpt>
      <trkpt lat="50.655500" lon="6.425441">
        <ele>410.620000</ele>
        <time>2010-03-14T10:02:41Z</time>
      </trkpt>
      <trkpt lat="50.655482" lon="6.425538">
        <ele>411.100000</ele>
        <time>2010-03-14T10:02:47Z</time>
      </trkpt>
      <trkpt lat="50.655483" lon="6.425913">
        <ele>410.620000</ele>
        <time>2010-03-14T10:03:03Z</time>
      </trkpt>
      <trkpt lat="50.655537" lon="6.426235">
        <ele>410.620000</ele>
        <time>2010-03-14T10:03:17Z</time>
      </trkpt>
      <trkpt lat="50.655536" lon="6.426273">
        <ele>410.620000</ele>
        <time>2010-03-14T10:03:19Z</time>
      </trkpt>
      <trkpt lat="50.655541" lon="6.426365">
        <ele>410.620000</ele>
        <time>2010-03-14T10:03:24Z</time>
      </trkpt>
      <trkpt lat="50.655586" lon="6.426585">
        <ele>410.620000</ele>
        <time>2010-03-14T10:03:34Z</time>
      </trkpt>
      <trkpt lat="50.655658" lon="6.426848">
        <ele>410.620000</ele>
        <time>2010-03-14T10:03:46Z</time>
      </trkpt>
      <trkpt lat="50.655744" lon="6.427207">
        <ele>410.140000</ele>
        <time>2010-03-14T10:04:03Z</time>
      </trkpt>
      <trkpt lat="50.655803" lon="6.427521">
        <ele>409.660000</ele>
        <time>2010-03-14T10:04:18Z</time>
      </trkpt>
      <trkpt lat="50.655830" lon="6.427845">
        <ele>409.180000</ele>
        <time>2010-03-14T10:04:33Z</time>
      </trkpt>
      <trkpt lat="50.655813" lon="6.428152">
        <ele>408.220000</ele>
        <time>2010-03-14T10:04:49Z</time>
      </trkpt>
      <trkpt lat="50.655810" lon="6.428574">
        <ele>408.220000</ele>
        <time>2010-03-14T10:05:07Z</time>
      </trkpt>
      <trkpt lat="50.655796" lon="6.428858">
        <ele>407.260000</ele>
        <time>2010-03-14T10:05:20Z</time>
      </trkpt>
      <trkpt lat="50.655793" lon="6.429300">
        <ele>406.770000</ele>
        <time>2010-03-14T10:05:37Z</time>
      </trkpt>
      <trkpt lat="50.655793" lon="6.429567">
        <ele>406.290000</ele>
        <time>2010-03-14T10:05:51Z</time>
      </trkpt>
      <trkpt lat="50.655786" lon="6.429946">
        <ele>405.330000</ele>
        <time>2010-03-14T10:06:07Z</time>
      </trkpt>
      <trkpt lat="50.655777" lon="6.430253">
        <ele>404.850000</ele>
        <time>2010-03-14T10:06:21Z</time>
      </trkpt>
      <trkpt lat="50.655769" lon="6.430640">
        <ele>403.890000</ele>
        <time>2010-03-14T10:06:38Z</time>
      </trkpt>
      <trkpt lat="50.655775" lon="6.430967">
        <ele>402.930000</ele>
        <time>2010-03-14T10:06:52Z</time>
      </trkpt>
      <trkpt lat="50.655776" lon="6.431358">
        <ele>401.490000</ele>
        <time>2010-03-14T10:07:08Z</time>
      </trkpt>
      <trkpt lat="50.655880" lon="6.431555">
        <ele>400.530000</ele>
        <time>2010-03-14T10:07:23Z</time>
      </trkpt>
      <trkpt lat="50.656013" lon="6.431615">
        <ele>400.050000</ele>
        <time>2010-03-14T10:07:34Z</time>
      </trkpt>
      <trkpt lat="50.656250" lon="6.431656">
        <ele>400.050000</ele>
        <time>2010-03-14T10:07:51Z</time>
      </trkpt>
      <trkpt lat="50.656408" lon="6.431689">
        <ele>399.570000</ele>
        <time>2010-03-14T10:08:03Z</time>
      </trkpt>
      <trkpt lat="50.656589" lon="6.431745">
        <ele>400.050000</ele>
        <time>2010-03-14T10:08:16Z</time>
      </trkpt>
      <trkpt lat="50.656752" lon="6.431793">
        <ele>399.570000</ele>
        <time>2010-03-14T10:08:29Z</time>
      </trkpt>
      <trkpt lat="50.657039" lon="6.431926">
        <ele>399.570000</ele>
        <time>2010-03-14T10:08:47Z</time>
      </trkpt>
      <trkpt lat="50.657202" lon="6.431978">
        <ele>399.570000</ele>
        <time>2010-03-14T10:09:00Z</time>
      </trkpt>
      <trkpt lat="50.657244" lon="6.432003">
        <ele>400.530000</ele>
        <time>2010-03-14T10:09:10Z</time>
      </trkpt>
      <trkpt lat="50.657234" lon="6.431664">
        <ele>401.010000</ele>
        <time>2010-03-14T10:09:24Z</time>
      </trkpt>
      <trkpt lat="50.657252" lon="6.431364">
        <ele>401.490000</ele>
        <time>2010-03-14T10:09:39Z</time>
      </trkpt>
      <trkpt lat="50.657246" lon="6.431004">
        <ele>402.450000</ele>
        <time>2010-03-14T10:09:54Z</time>
      </trkpt>
      <trkpt lat="50.657237" lon="6.430692">
        <ele>402.450000</ele>
        <time>2010-03-14T10:10:08Z</time>
      </trkpt>
      <trkpt lat="50.657245" lon="6.430381">
        <ele>402.450000</ele>
        <time>2010-03-14T10:10:23Z</time>
      </trkpt>
      <trkpt lat="50.657233" lon="6.430049">
        <ele>403.410000</ele>
        <time>2010-03-14T10:10:39Z</time>
      </trkpt>
      <trkpt lat="50.657263" lon="6.429900">
        <ele>403.890000</ele>
        <time>2010-03-14T10:10:47Z</time>
      </trkpt>
      <trkpt lat="50.657266" lon="6.429706">
        <ele>404.370000</ele>
        <time>2010-03-14T10:10:55Z</time>
      </trkpt>
      <trkpt lat="50.657266" lon="6.429281">
        <ele>404.370000</ele>
        <time>2010-03-14T10:11:13Z</time>
      </trkpt>
      <trkpt lat="50.657253" lon="6.429004">
        <ele>404.370000</ele>
        <time>2010-03-14T10:11:26Z</time>
      </trkpt>
      <trkpt lat="50.657260" lon="6.428666">
        <ele>403.410000</ele>
        <time>2010-03-14T10:11:41Z</time>
      </trkpt>
      <trkpt lat="50.657191" lon="6.428381">
        <ele>402.450000</ele>
        <time>2010-03-14T10:11:55Z</time>
      </trkpt>
      <trkpt lat="50.657118" lon="6.428100">
        <ele>402.930000</ele>
        <time>2010-03-14T10:12:10Z</time>
      </trkpt>
      <trkpt lat="50.656998" lon="6.427736">
        <ele>402.930000</ele>
        <time>2010-03-14T10:12:27Z</time>
      </trkpt>
      <trkpt lat="50.656947" lon="6.427514">
        <ele>403.410000</ele>
        <time>2010-03-14T10:12:37Z</time>
      </trkpt>
      <trkpt lat="50.656847" lon="6.427204">
        <ele>404.850000</ele>
        <time>2010-03-14T10:12:53Z</time>
      </trkpt>
      <trkpt lat="50.656762" lon="6.426942">
        <ele>405.810000</ele>
        <time>2010-03-14T10:13:07Z</time>
      </trkpt>
      <trkpt lat="50.656708" lon="6.426724">
        <ele>405.330000</ele>
        <time>2010-03-14T10:13:16Z</time>
      </trkpt>
      <trkpt lat="50.656630" lon="6.426441">
        <ele>405.330000</ele>
        <time>2010-03-14T10:13:32Z</time>
      </trkpt>
      <trkpt lat="50.656557" lon="6.426212">
        <ele>405.330000</ele>
        <time>2010-03-14T10:13:43Z</time>
      </trkpt>
      <trkpt lat="50.656502" lon="6.425867">
        <ele>405.330000</ele>
        <time>2010-03-14T10:13:59Z</time>
      </trkpt>
      <trkpt lat="50.656431" lon="6.425550">
        <ele>405.330000</ele>
        <time>2010-03-14T10:14:15Z</time>
      </trkpt>
      <trkpt lat="50.656429" lon="6.425535">
        <ele>405.330000</ele>
        <time>2010-03-14T10:14:16Z</time>
      </trkpt>
      <trkpt lat="50.656421" lon="6.425423">
        <ele>405.330000</ele>
        <time>2010-03-14T10:14:20Z</time>
      </trkpt>
      <trkpt lat="50.656419" lon="6.425099">
        <ele>405.330000</ele>
        <time>2010-03-14T10:14:35Z</time>
      </trkpt>
      <trkpt lat="50.656430" lon="6.424795">
        <ele>404.850000</ele>
        <time>2010-03-14T10:14:48Z</time>
      </trkpt>
      <trkpt lat="50.656449" lon="6.424530">
        <ele>404.370000</ele>
        <time>2010-03-14T10:15:00Z</time>
      </trkpt>
      <trkpt lat="50.656494" lon="6.424212">
        <ele>403.890000</ele>
        <time>2010-03-14T10:15:15Z</time>
      </trkpt>
      <trkpt lat="50.656554" lon="6.423912">
        <ele>404.370000</ele>
        <time>2010-03-14T10:15:29Z</time>
      </trkpt>
      <trkpt lat="50.656548" lon="6.423864">
        <ele>404.370000</ele>
        <time>2010-03-14T10:15:31Z</time>
      </trkpt>
      <trkpt lat="50.656604" lon="6.423702">
        <ele>404.850000</ele>
        <time>2010-03-14T10:15:40Z</time>
      </trkpt>
      <trkpt lat="50.656637" lon="6.423535">
        <ele>405.810000</ele>
        <time>2010-03-14T10:15:49Z</time>
      </trkpt>
      <trkpt lat="50.656695" lon="6.423193">
        <ele>407.260000</ele>
        <time>2010-03-14T10:16:05Z</time>
      </trkpt>
      <trkpt lat="50.656747" lon="6.422933">
        <ele>408.700000</ele>
        <time>2010-03-14T10:16:18Z</time>
      </trkpt>
      <trkpt lat="50.656798" lon="6.422661">
        <ele>409.660000</ele>
        <time>2010-03-14T10:16:32Z</time>
      </trkpt>
      <trkpt lat="50.656792" lon="6.422593">
        <ele>410.620000</ele>
        <time>2010-03-14T10:16:36Z</time>
      </trkpt>
      <trkpt lat="50.656821" lon="6.422257">
        <ele>412.060000</ele>
        <time>2010-03-14T10:16:52Z</time>
      </trkpt>
      <trkpt lat="50.656899" lon="6.421983">
        <ele>412.540000</ele>
        <time>2010-03-14T10:17:06Z</time>
      </trkpt>
      <trkpt lat="50.656936" lon="6.421699">
        <ele>413.980000</ele>
        <time>2010-03-14T10:17:19Z</time>
      </trkpt>
      <trkpt lat="50.656958" lon="6.421486">
        <ele>413.980000</ele>
        <time>2010-03-14T10:17:30Z</time>
      </trkpt>
      <trkpt lat="50.657003" lon="6.421135">
        <ele>415.430000</ele>
        <time>2010-03-14T10:17:46Z</time>
      </trkpt>
      <trkpt lat="50.657015" lon="6.420921">
        <ele>415.430000</ele>
        <time>2010-03-14T10:17:56Z</time>
      </trkpt>
      <trkpt lat="50.657049" lon="6.420719">
        <ele>416.390000</ele>
        <time>2010-03-14T10:18:06Z</time>
      </trkpt>
      <trkpt lat="50.657046" lon="6.420441">
        <ele>416.870000</ele>
        <time>2010-03-14T10:18:20Z</time>
      </trkpt>
      <trkpt lat="50.657044" lon="6.420420">
        <ele>417.350000</ele>
        <time>2010-03-14T10:18:21Z</time>
      </trkpt>
      <trkpt lat="50.657092" lon="6.420273">
        <ele>417.350000</ele>
        <time>2010-03-14T10:18:29Z</time>
      </trkpt>
      <trkpt lat="50.657146" lon="6.420041">
        <ele>417.830000</ele>
        <time>2010-03-14T10:18:42Z</time>
      </trkpt>
      <trkpt lat="50.657185" lon="6.419963">
        <ele>417.830000</ele>
        <time>2010-03-14T10:18:46Z</time>
      </trkpt>
      <trkpt lat="50.657209" lon="6.419600">
        <ele>417.830000</ele>
        <time>2010-03-14T10:19:01Z</time>
      </trkpt>
      <trkpt lat="50.657214" lon="6.419314">
        <ele>418.310000</ele>
        <time>2010-03-14T10:19:15Z</time>
      </trkpt>
      <trkpt lat="50.657257" lon="6.418998">
        <ele>418.310000</ele>
        <time>2010-03-14T10:19:31Z</time>
      </trkpt>
      <trkpt lat="50.657310" lon="6.418659">
        <ele>417.830000</ele>
        <time>2010-03-14T10:19:46Z</time>
      </trkpt>
      <trkpt lat="50.657309" lon="6.418608">
        <ele>417.830000</ele>
        <time>2010-03-14T10:19:48Z</time>
      </trkpt>
      <trkpt lat="50.657348" lon="6.418340">
        <ele>417.350000</ele>
        <time>2010-03-14T10:20:02Z</time>
      </trkpt>
      <trkpt lat="50.657359" lon="6.418322">
        <ele>417.350000</ele>
        <time>2010-03-14T10:20:03Z</time>
      </trkpt>
      <trkpt lat="50.657382" lon="6.417957">
        <ele>417.350000</ele>
        <time>2010-03-14T10:20:19Z</time>
      </trkpt>
      <trkpt lat="50.657426" lon="6.417832">
        <ele>416.870000</ele>
        <time>2010-03-14T10:20:26Z</time>
      </trkpt>
      <trkpt lat="50.657477" lon="6.417731">
        <ele>416.870000</ele>
        <time>2010-03-14T10:20:32Z</time>
      </trkpt>
      <trkpt lat="50.657570" lon="6.417497">
        <ele>416.390000</ele>
        <time>2010-03-14T10:20:43Z</time>
      </trkpt>
      <trkpt lat="50.657674" lon="6.417215">
        <ele>416.870000</ele>
        <time>2010-03-14T10:20:57Z</time>
      </trkpt>
      <trkpt lat="50.657733" lon="6.417100">
        <ele>415.910000</ele>
        <time>2010-03-14T10:21:05Z</time>
      </trkpt>
      <trkpt lat="50.657763" lon="6.416996">
        <ele>415.910000</ele>
        <time>2010-03-14T10:21:10Z</time>
      </trkpt>
      <trkpt lat="50.657861" lon="6.416725">
        <ele>415.430000</ele>
        <time>2010-03-14T10:21:24Z</time>
      </trkpt>
      <trkpt lat="50.657995" lon="6.416465">
        <ele>415.430000</ele>
        <time>2010-03-14T10:21:38Z</time>
      </trkpt>
      <trkpt lat="50.658059" lon="6.416247">
        <ele>415.430000</ele>
        <time>2010-03-14T10:21:50Z</time>
      </trkpt>
      <trkpt lat="50.658135" lon="6.416007">
        <ele>415.910000</ele>
        <time>2010-03-14T10:22:02Z</time>
      </trkpt>
      <trkpt lat="50.658261" lon="6.415764">
        <ele>415.430000</ele>
        <time>2010-03-14T10:22:17Z</time>
      </trkpt>
      <trkpt lat="50.658317" lon="6.415530">
        <ele>415.430000</ele>
        <time>2010-03-14T10:22:28Z</time>
      </trkpt>
      <trkpt lat="50.658360" lon="6.415471">
        <ele>415.430000</ele>
        <time>2010-03-14T10:22:33Z</time>
      </trkpt>
      <trkpt lat="50.658421" lon="6.415290">
        <ele>414.950000</ele>
        <time>2010-03-14T10:22:41Z</time>
      </trkpt>
      <trkpt lat="50.658441" lon="6.415228">
        <ele>414.950000</ele>
        <time>2010-03-14T10:22:45Z</time>
      </trkpt>
      <trkpt lat="50.658515" lon="6.414992">
        <ele>414.470000</ele>
        <time>2010-03-14T10:22:56Z</time>
      </trkpt>
      <trkpt lat="50.658532" lon="6.414895">
        <ele>414.950000</ele>
        <time>2010-03-14T10:23:02Z</time>
      </trkpt>
      <trkpt lat="50.658588" lon="6.414772">
        <ele>415.910000</ele>
        <time>2010-03-14T10:23:09Z</time>
      </trkpt>
      <trkpt lat="50.658604" lon="6.414737">
        <ele>415.910000</ele>
        <time>2010-03-14T10:23:11Z</time>
      </trkpt>
      <trkpt lat="50.658615" lon="6.414635">
        <ele>416.390000</ele>
        <time>2010-03-14T10:23:16Z</time>
      </trkpt>
      <trkpt lat="50.658648" lon="6.414262">
        <ele>418.310000</ele>
        <time>2010-03-14T10:23:33Z</time>
      </trkpt>
      <trkpt lat="50.658656" lon="6.414156">
        <ele>417.830000</ele>
        <time>2010-03-14T10:23:38Z</time>
      </trkpt>
      <trkpt lat="50.658738" lon="6.413921">
        <ele>417.830000</ele>
        <time>2010-03-14T10:23:53Z</time>
      </trkpt>
      <trkpt lat="50.658853" lon="6.413958">
        <ele>416.870000</ele>
        <time>2010-03-14T10:24:01Z</time>
      </trkpt>
      <trkpt lat="50.659041" lon="6.414137">
        <ele>416.870000</ele>
        <time>2010-03-14T10:24:16Z</time>
      </trkpt>
      <trkpt lat="50.659162" lon="6.414240">
        <ele>416.870000</ele>
        <time>2010-03-14T10:24:27Z</time>
      </trkpt>
      <trkpt lat="50.659352" lon="6.414413">
        <ele>417.830000</ele>
        <time>2010-03-14T10:24:43Z</time>
      </trkpt>
      <trkpt lat="50.659502" lon="6.414533">
        <ele>417.830000</ele>
        <time>2010-03-14T10:24:56Z</time>
      </trkpt>
      <trkpt lat="50.659670" lon="6.414753">
        <ele>419.270000</ele>
        <time>2010-03-14T10:25:12Z</time>
      </trkpt>
      <trkpt lat="50.659884" lon="6.414850">
        <ele>419.270000</ele>
        <time>2010-03-14T10:25:27Z</time>
      </trkpt>
      <trkpt lat="50.660035" lon="6.414995">
        <ele>419.270000</ele>
        <time>2010-03-14T10:25:41Z</time>
      </trkpt>
      <trkpt lat="50.660171" lon="6.415149">
        <ele>419.270000</ele>
        <time>2010-03-14T10:25:53Z</time>
      </trkpt>
      <trkpt lat="50.660301" lon="6.415355">
        <ele>419.270000</ele>
        <time>2010-03-14T10:26:05Z</time>
      </trkpt>
      <trkpt lat="50.660500" lon="6.415534">
        <ele>418.310000</ele>
        <time>2010-03-14T10:26:22Z</time>
      </trkpt>
      <trkpt lat="50.660509" lon="6.415552">
        <ele>418.310000</ele>
        <time>2010-03-14T10:26:23Z</time>
      </trkpt>
      <trkpt lat="50.660595" lon="6.415683">
        <ele>418.310000</ele>
        <time>2010-03-14T10:26:33Z</time>
      </trkpt>
      <trkpt lat="50.660637" lon="6.415731">
        <ele>417.830000</ele>
        <time>2010-03-14T10:26:37Z</time>
      </trkpt>
      <trkpt lat="50.660806" lon="6.415856">
        <ele>417.350000</ele>
        <time>2010-03-14T10:26:51Z</time>
      </trkpt>
      <trkpt lat="50.660848" lon="6.415907">
        <ele>416.870000</ele>
        <time>2010-03-14T10:26:54Z</time>
      </trkpt>
      <trkpt lat="50.660976" lon="6.416047">
        <ele>416.390000</ele>
        <time>2010-03-14T10:27:04Z</time>
      </trkpt>
      <trkpt lat="50.661145" lon="6.416210">
        <ele>415.430000</ele>
        <time>2010-03-14T10:27:19Z</time>
      </trkpt>
      <trkpt lat="50.661157" lon="6.416220">
        <ele>415.430000</ele>
        <time>2010-03-14T10:27:21Z</time>
      </trkpt>
      <trkpt lat="50.661220" lon="6.416181">
        <ele>415.430000</ele>
        <time>2010-03-14T10:27:25Z</time>
      </trkpt>
      <trkpt lat="50.661274" lon="6.416088">
        <ele>415.910000</ele>
        <time>2010-03-14T10:27:30Z</time>
      </trkpt>
      <trkpt lat="50.661304" lon="6.415951">
        <ele>415.910000</ele>
        <time>2010-03-14T10:27:36Z</time>
      </trkpt>
      <trkpt lat="50.661414" lon="6.415663">
        <ele>416.870000</ele>
        <time>2010-03-14T10:27:51Z</time>
      </trkpt>
      <trkpt lat="50.661534" lon="6.415404">
        <ele>416.870000</ele>
        <time>2010-03-14T10:28:05Z</time>
      </trkpt>
      <trkpt lat="50.661636" lon="6.415207">
        <ele>416.870000</ele>
        <time>2010-03-14T10:28:18Z</time>
      </trkpt>
      <trkpt lat="50.661669" lon="6.415136">
        <ele>417.350000</ele>
        <time>2010-03-14T10:28:23Z</time>
      </trkpt>
      <trkpt lat="50.661771" lon="6.414785">
        <ele>417.350000</ele>
        <time>2010-03-14T10:28:39Z</time>
      </trkpt>
      <trkpt lat="50.661931" lon="6.414601">
        <ele>417.830000</ele>
        <time>2010-03-14T10:28:53Z</time>
      </trkpt>
      <trkpt lat="50.662072" lon="6.414470">
        <ele>419.270000</ele>
        <time>2010-03-14T10:29:06Z</time>
      </trkpt>
      <trkpt lat="50.662235" lon="6.414421">
        <ele>419.750000</ele>
        <time>2010-03-14T10:29:20Z</time>
      </trkpt>
      <trkpt lat="50.662405" lon="6.414353">
        <ele>420.710000</ele>
        <time>2010-03-14T10:29:32Z</time>
      </trkpt>
      <trkpt lat="50.662526" lon="6.414305">
        <ele>421.190000</ele>
        <time>2010-03-14T10:29:44Z</time>
      </trkpt>
      <trkpt lat="50.662603" lon="6.414247">
        <ele>421.680000</ele>
        <time>2010-03-14T10:29:50Z</time>
      </trkpt>
      <trkpt lat="50.662674" lon="6.414055">
        <ele>422.160000</ele>
        <time>2010-03-14T10:29:59Z</time>
      </trkpt>
      <trkpt lat="50.662754" lon="6.414001">
        <ele>421.680000</ele>
        <time>2010-03-14T10:30:06Z</time>
      </trkpt>
      <trkpt lat="50.662979" lon="6.413912">
        <ele>421.680000</ele>
        <time>2010-03-14T10:30:23Z</time>
      </trkpt>
      <trkpt lat="50.663184" lon="6.413877">
        <ele>422.160000</ele>
        <time>2010-03-14T10:30:37Z</time>
      </trkpt>
      <trkpt lat="50.663322" lon="6.413853">
        <ele>422.160000</ele>
        <time>2010-03-14T10:30:48Z</time>
      </trkpt>
      <trkpt lat="50.663510" lon="6.413807">
        <ele>421.680000</ele>
        <time>2010-03-14T10:31:05Z</time>
      </trkpt>
      <trkpt lat="50.663558" lon="6.413778">
        <ele>421.680000</ele>
        <time>2010-03-14T10:31:09Z</time>
      </trkpt>
      <trkpt lat="50.663672" lon="6.413765">
        <ele>421.190000</ele>
        <time>2010-03-14T10:31:17Z</time>
      </trkpt>
      <trkpt lat="50.663886" lon="6.413778">
        <ele>421.190000</ele>
        <time>2010-03-14T10:31:33Z</time>
      </trkpt>
      <trkpt lat="50.664086" lon="6.413862">
        <ele>420.230000</ele>
        <time>2010-03-14T10:31:49Z</time>
      </trkpt>
      <trkpt lat="50.664197" lon="6.413916">
        <ele>419.750000</ele>
        <time>2010-03-14T10:32:02Z</time>
      </trkpt>
      <trkpt lat="50.664384" lon="6.413943">
        <ele>419.270000</ele>
        <time>2010-03-14T10:32:18Z</time>
      </trkpt>
      <trkpt lat="50.664556" lon="6.414002">
        <ele>418.790000</ele>
        <time>2010-03-14T10:32:32Z</time>
      </trkpt>
      <trkpt lat="50.664591" lon="6.413986">
        <ele>418.310000</ele>
        <time>2010-03-14T10:32:46Z</time>
      </trkpt>
      <trkpt lat="50.664668" lon="6.414070">
        <ele>417.350000</ele>
        <time>2010-03-14T10:32:54Z</time>
      </trkpt>
      <trkpt lat="50.664775" lon="6.414068">
        <ele>416.870000</ele>
        <time>2010-03-14T10:32:59Z</time>
      </trkpt>
      <trkpt lat="50.664962" lon="6.414062">
        <ele>416.870000</ele>
        <time>2010-03-14T10:33:15Z</time>
      </trkpt>
      <trkpt lat="50.665057" lon="6.414009">
        <ele>416.870000</ele>
        <time>2010-03-14T10:33:23Z</time>
      </trkpt>
      <trkpt lat="50.665182" lon="6.413974">
        <ele>417.350000</ele>
        <time>2010-03-14T10:33:31Z</time>
      </trkpt>
      <trkpt lat="50.665374" lon="6.413963">
        <ele>417.830000</ele>
        <time>2010-03-14T10:33:45Z</time>
      </trkpt>
      <trkpt lat="50.665582" lon="6.413891">
        <ele>417.350000</ele>
        <time>2010-03-14T10:34:00Z</time>
      </trkpt>
      <trkpt lat="50.665659" lon="6.413806">
        <ele>416.870000</ele>
        <time>2010-03-14T10:34:09Z</time>
      </trkpt>
      <trkpt lat="50.665820" lon="6.413549">
        <ele>417.350000</ele>
        <time>2010-03-14T10:34:24Z</time>
      </trkpt>
      <trkpt lat="50.665933" lon="6.413379">
        <ele>415.910000</ele>
        <time>2010-03-14T10:34:37Z</time>
      </trkpt>
      <trkpt lat="50.666033" lon="6.413182">
        <ele>413.980000</ele>
        <time>2010-03-14T10:34:50Z</time>
      </trkpt>
      <trkpt lat="50.666057" lon="6.413085">
        <ele>413.500000</ele>
        <time>2010-03-14T10:34:55Z</time>
      </trkpt>
      <trkpt lat="50.666108" lon="6.412979">
        <ele>412.540000</ele>
        <time>2010-03-14T10:35:00Z</time>
      </trkpt>
      <trkpt lat="50.666138" lon="6.412885">
        <ele>411.580000</ele>
        <time>2010-03-14T10:35:05Z</time>
      </trkpt>
      <trkpt lat="50.666273" lon="6.412655">
        <ele>411.100000</ele>
        <time>2010-03-14T10:35:18Z</time>
      </trkpt>
      <trkpt lat="50.666293" lon="6.412615">
        <ele>411.100000</ele>
        <time>2010-03-14T10:35:21Z</time>
      </trkpt>
      <trkpt lat="50.666195" lon="6.412523">
        <ele>412.540000</ele>
        <time>2010-03-14T10:35:31Z</time>
      </trkpt>
      <trkpt lat="50.666134" lon="6.412411">
        <ele>413.500000</ele>
        <time>2010-03-14T10:35:39Z</time>
      </trkpt>
      <trkpt lat="50.666085" lon="6.412330">
        <ele>414.470000</ele>
        <time>2010-03-14T10:35:45Z</time>
      </trkpt>
      <trkpt lat="50.665998" lon="6.412197">
        <ele>415.430000</ele>
        <time>2010-03-14T10:35:54Z</time>
      </trkpt>
      <trkpt lat="50.665887" lon="6.411984">
        <ele>417.350000</ele>
        <time>2010-03-14T10:36:08Z</time>
      </trkpt>
      <trkpt lat="50.665780" lon="6.411788">
        <ele>418.790000</ele>
        <time>2010-03-14T10:36:23Z</time>
      </trkpt>
      <trkpt lat="50.665719" lon="6.411681">
        <ele>419.270000</ele>
        <time>2010-03-14T10:36:31Z</time>
      </trkpt>
      <trkpt lat="50.665583" lon="6.411447">
        <ele>420.710000</ele>
        <time>2010-03-14T10:36:45Z</time>
      </trkpt>
      <trkpt lat="50.665442" lon="6.411352">
        <ele>422.160000</ele>
        <time>2010-03-14T10:36:59Z</time>
      </trkpt>
      <trkpt lat="50.665414" lon="6.411319">
        <ele>422.160000</ele>
        <time>2010-03-14T10:37:02Z</time>
      </trkpt>
      <trkpt lat="50.665280" lon="6.411212">
        <ele>423.600000</ele>
        <time>2010-03-14T10:37:14Z</time>
      </trkpt>
      <trkpt lat="50.665150" lon="6.411083">
        <ele>424.560000</ele>
        <time>2010-03-14T10:37:27Z</time>
      </trkpt>
      <trkpt lat="50.665120" lon="6.411038">
        <ele>424.560000</ele>
        <time>2010-03-14T10:37:47Z</time>
      </trkpt>
      <trkpt lat="50.665088" lon="6.410981">
        <ele>424.560000</ele>
        <time>2010-03-14T10:37:50Z</time>
      </trkpt>
      <trkpt lat="50.665066" lon="6.410895">
        <ele>425.040000</ele>
        <time>2010-03-14T10:37:54Z</time>
      </trkpt>
      <trkpt lat="50.664973" lon="6.410663">
        <ele>425.040000</ele>
        <time>2010-03-14T10:38:07Z</time>
      </trkpt>
      <trkpt lat="50.664935" lon="6.410566">
        <ele>426.000000</ele>
        <time>2010-03-14T10:38:12Z</time>
      </trkpt>
      <trkpt lat="50.664902" lon="6.410530">
        <ele>425.520000</ele>
        <time>2010-03-14T10:38:15Z</time>
      </trkpt>
      <trkpt lat="50.664873" lon="6.410503">
        <ele>426.000000</ele>
        <time>2010-03-14T10:38:18Z</time>
      </trkpt>
      <trkpt lat="50.664846" lon="6.410444">
        <ele>426.000000</ele>
        <time>2010-03-14T10:38:22Z</time>
      </trkpt>
      <trkpt lat="50.664735" lon="6.410217">
        <ele>426.960000</ele>
        <time>2010-03-14T10:38:37Z</time>
      </trkpt>
      <trkpt lat="50.664695" lon="6.410149">
        <ele>426.960000</ele>
        <time>2010-03-14T10:38:41Z</time>
      </trkpt>
      <trkpt lat="50.664652" lon="6.410077">
        <ele>427.440000</ele>
        <time>2010-03-14T10:38:46Z</time>
      </trkpt>
      <trkpt lat="50.664532" lon="6.409772">
        <ele>427.920000</ele>
        <time>2010-03-14T10:39:04Z</time>
      </trkpt>
      <trkpt lat="50.664479" lon="6.409676">
        <ele>428.890000</ele>
        <time>2010-03-14T10:39:10Z</time>
      </trkpt>
      <trkpt lat="50.664413" lon="6.409460">
        <ele>428.890000</ele>
        <time>2010-03-14T10:39:21Z</time>
      </trkpt>
      <trkpt lat="50.664316" lon="6.409210">
        <ele>429.850000</ele>
        <time>2010-03-14T10:39:35Z</time>
      </trkpt>
      <trkpt lat="50.664234" lon="6.409068">
        <ele>428.890000</ele>
        <time>2010-03-14T10:39:45Z</time>
      </trkpt>
      <trkpt lat="50.664236" lon="6.409030">
        <ele>428.400000</ele>
        <time>2010-03-14T10:39:47Z</time>
      </trkpt>
      <trkpt lat="50.664129" lon="6.408933"/>
      <trkpt lat="50.664022" lon="6.408745"/>
      <trkpt lat="50.663877" lon="6.408546"/>
      <trkpt lat="50.663739" lon="6.408298"/>
      <trkpt lat="50.663594" lon="6.408110"/>
      <trkpt lat="50.663500" lon="6.407931"/>
      <trkpt lat="50.663437" lon="6.407713"/>
      <trkpt lat="50.663362" lon="6.407524"/>
      <trkpt lat="50.663324" lon="6.407306"/>
      <trkpt lat="50.663399" lon="6.406979"/>
      <trkpt lat="50.663538" lon="6.406661"/>
      <trkpt lat="50.663664" lon="6.406413"/>
      <trkpt lat="50.663739" lon="6.406116"/>
      <trkpt lat="50.663783" lon="6.405788"/>
      <trkpt lat="50.663695" lon="6.405749"/>
      <trkpt lat="50.663588" lon="6.405719"/>
      <trkpt lat="50.663494" lon="6.405649"/>
      <trkpt lat="50.663494" lon="6.405640"/>
      <trkpt lat="50.663399" lon="6.405511"/>
      <trkpt lat="50.663355" lon="6.405392"/>
      <trkpt lat="50.663324" lon="6.405411"/>
    </trkseg>
  </trk>

</gpx>
